Time;durP1;ratioP1;P1;durP2;ratioP2;P2;SDS_P1;SDS_P2;PMS_P1;PMS_P2;Temp;Humidity;BMP_temperature;BMP_pressure;BME280_temperature;BME280_humidity;BME280_pressure;Samples;Min_cycle;Max_cycle;Signal;HPM_P1;HPM_P2
2023/07/27 00:01:47;;;;;;;;;;;12.50;99.90;;;;;;5116427;28;20420;-64
2023/07/27 00:04:14;;;;;;;;;;;12.70;99.90;;;;;;5116016;28;19922;-64
2023/07/27 00:06:41;;;;;;;;;;;12.80;99.90;;;;;;5098104;28;19964;-64
2023/07/27 00:09:07;;;;;;;;;;;13.00;99.90;;;;;;5115941;28;20345;-65
2023/07/27 00:11:34;;;;;;;;;;;13.10;99.90;;;;;;5115743;28;19939;-65
2023/07/27 00:14:00;;;;;;;;;;;13.20;99.90;;;;;;5115654;28;19918;-66
2023/07/27 00:16:27;;;;;;;;;;;13.30;99.90;;;;;;5115716;28;19915;-66
2023/07/27 00:18:54;;;;;;;;;;;13.40;99.90;;;;;;5115123;28;19969;-65
2023/07/27 00:21:21;;;;;;;;;;;13.50;99.90;;;;;;5115169;28;20002;-66
2023/07/27 00:23:47;;;;;;;;;;;13.50;99.90;;;;;;5115830;28;20011;-65
2023/07/27 00:26:14;;;;;;;;;;;13.70;99.90;;;;;;5115970;28;20291;-67
2023/07/27 00:28:41;;;;;;;;;;;13.80;99.90;;;;;;5116083;28;19908;-65
2023/07/27 00:31:08;;;;;;;;;;;14.00;99.90;;;;;;5115700;28;19964;-64
2023/07/27 00:33:35;;;;;;;;;;;14.10;99.90;;;;;;5115661;28;19918;-66
2023/07/27 00:36:02;;;;;;;;;;;14.10;99.90;;;;;;5115623;28;19915;-65
2023/07/27 00:38:28;;;;;;;;;;;14.20;99.90;;;;;;5115680;28;19915;-64
2023/07/27 00:40:55;;;;;;;;;;;14.30;99.90;;;;;;5115612;28;19915;-67
2023/07/27 00:43:21;;;;;;;;;;;14.30;99.90;;;;;;5115740;28;19927;-65
2023/07/27 00:45:49;;;;;;;;;;;14.50;99.90;;;;;;5115918;28;19908;-64
2023/07/27 00:48:16;;;;;;;;;;;14.50;99.90;;;;;;5115626;28;19957;-67
2023/07/27 00:50:43;;;;;;;;;;;14.70;99.90;;;;;;5115786;28;20280;-67
2023/07/27 00:53:10;;;;;;;;;;;14.80;99.90;;;;;;5115387;28;20391;-66
2023/07/27 00:55:37;;;;;;;;;;;14.90;99.90;;;;;;5115278;28;19919;-64
2023/07/27 00:58:03;;;;;;;;;;;14.90;99.90;;;;;;5097011;28;19960;-63
2023/07/27 01:00:30;;;;;;;;;;;15.10;99.90;;;;;;5115320;28;20002;-63
2023/07/27 01:02:58;;;;;;;;;;;15.20;99.90;;;;;;5115319;28;19907;-63
2023/07/27 01:05:24;;;;;;;;;;;15.30;99.90;;;;;;5115192;28;19962;-63
2023/07/27 01:07:51;;;;;;;;;;;15.40;99.90;;;;;;5115215;28;19908;-64
2023/07/27 01:10:19;;;;;;;;;;;15.50;99.90;;;;;;5114765;28;19947;-63
2023/07/27 01:12:51;;;;;;;;;;;15.60;99.90;;;;;;5114940;28;20371;-65
2023/07/27 01:15:18;;;;;;;;;;;15.70;99.90;;;;;;5114769;28;20392;-64
2023/07/27 01:17:51;;;;;;;;;;;15.80;99.90;;;;;;5114934;28;19946;-64
2023/07/27 01:20:21;;;;;;;;;;;15.90;99.90;;;;;;5096921;28;19908;-64
2023/07/27 01:22:51;;;;;;;;;;;16.00;99.90;;;;;;5114907;28;20363;-65
2023/07/27 01:25:26;;;;;;;;;;;16.20;99.90;;;;;;5115064;28;19908;-64
2023/07/27 01:27:57;;;;;;;;;;;16.40;99.90;;;;;;5114738;28;19908;-64
2023/07/27 01:30:24;;;;;;;;;;;16.50;99.90;;;;;;5114853;28;19912;-63
2023/07/27 01:32:54;;;;;;;;;;;16.60;99.90;;;;;;5114702;28;20404;-65
2023/07/27 01:35:21;;;;;;;;;;;16.60;99.90;;;;;;5114481;28;20261;-63
2023/07/27 01:37:48;;;;;;;;;;;16.70;99.90;;;;;;5115050;28;19915;-65
2023/07/27 01:40:15;;;;;;;;;;;16.90;99.90;;;;;;5114810;28;19915;-65
2023/07/27 01:42:42;;;;;;;;;;;16.80;99.90;;;;;;5114205;28;20002;-65
2023/07/27 01:45:09;;;;;;;;;;;16.80;99.90;;;;;;5114302;28;19911;-66
2023/07/27 01:47:37;;;;;;;;;;;17.00;99.90;;;;;;5114525;28;19915;-64
2023/07/27 01:50:04;;;;;;;;;;;17.10;99.90;;;;;;5114323;28;20367;-64
2023/07/27 01:52:31;;;;;;;;;;;17.20;99.90;;;;;;5114266;28;19911;-64
2023/07/27 01:54:58;;;;;;;;;;;17.40;99.90;;;;;;5114396;28;19907;-64
2023/07/27 01:57:25;;;;;;;;;;;17.60;99.90;;;;;;5114191;28;20397;-65
2023/07/27 01:59:52;;;;;;;;;;;17.70;99.90;;;;;;5114285;28;19966;-64
2023/07/27 02:02:19;;;;;;;;;;;17.70;99.90;;;;;;5114336;28;19933;-64
2023/07/27 02:04:46;;;;;;;;;;;17.90;99.90;;;;;;5114301;28;19912;-64
2023/07/27 02:07:12;;;;;;;;;;;18.00;99.90;;;;;;5114046;28;20006;-64
2023/07/27 02:09:39;;;;;;;;;;;18.10;99.90;;;;;;5114032;28;19999;-64
2023/07/27 02:12:19;;;;;;;;;;;18.30;99.90;;;;;;5113887;28;19918;-64
2023/07/27 02:15:02;;;;;;;;;;;18.40;99.90;;;;;;5114239;28;20353;-65
2023/07/27 02:17:49;;;;;;;;;;;18.50;99.90;;;;;;5113775;28;20348;-65
2023/07/27 02:20:17;;;;;;;;;;;18.50;99.90;;;;;;5113796;28;19999;-64
2023/07/27 02:22:44;;;;;;;;;;;18.40;99.90;;;;;;5113338;28;20352;-64
2023/07/27 02:25:11;;;;;;;;;;;18.50;99.90;;;;;;5113559;28;19918;-64
2023/07/27 02:27:38;;;;;;;;;;;18.40;99.90;;;;;;5112964;28;20352;-63
2023/07/27 02:30:04;;;;;;;;;;;18.40;99.90;;;;;;5113230;28;20274;-63
2023/07/27 02:32:32;;;;;;;;;;;18.30;99.90;;;;;;5113648;28;19908;-63
2023/07/27 02:34:59;;;;;;;;;;;18.40;99.90;;;;;;5113479;28;19980;-64
2023/07/27 02:37:25;;;;;;;;;;;18.40;99.90;;;;;;5113665;28;20006;-64
2023/07/27 02:39:52;;;;;;;;;;;18.30;99.90;;;;;;5113463;28;20264;-64
2023/07/27 02:42:18;;;;;;;;;;;18.50;99.90;;;;;;5112224;28;20004;-64
2023/07/27 02:44:45;;;;;;;;;;;18.60;99.90;;;;;;5111347;28;19912;-66
2023/07/27 02:47:12;;;;;;;;;;;18.60;99.90;;;;;;5111511;28;19908;-64
2023/07/27 02:49:38;;;;;;;;;;;18.70;99.90;;;;;;5111438;28;19961;-67
2023/07/27 02:52:05;;;;;;;;;;;18.90;99.90;;;;;;5111325;28;19943;-65
2023/07/27 02:54:31;;;;;;;;;;;19.20;99.90;;;;;;5111513;28;19907;-66
2023/07/27 02:56:58;;;;;;;;;;;19.60;99.90;;;;;;5111581;28;19923;-65
2023/07/27 02:59:25;;;;;;;;;;;19.80;99.90;;;;;;5113258;28;19914;-67
2023/07/27 03:01:51;;;;;;;;;;;19.90;99.90;;;;;;5113332;28;20348;-66
2023/07/27 03:04:18;;;;;;;;;;;20.00;99.90;;;;;;5110259;28;19918;-65
2023/07/27 03:06:44;;;;;;;;;;;20.20;99.60;;;;;;5111312;27;20078;-65
2023/07/27 03:09:11;;;;;;;;;;;20.50;99.50;;;;;;5112838;28;20287;-65
2023/07/27 03:11:38;;;;;;;;;;;20.80;99.20;;;;;;5113033;28;19908;-64
2023/07/27 03:14:04;;;;;;;;;;;21.90;97.90;;;;;;5112846;28;19961;-64
2023/07/27 03:16:31;;;;;;;;;;;23.30;95.40;;;;;;5112696;28;19916;-65
2023/07/27 03:18:58;;;;;;;;;;;24.10;93.80;;;;;;5113061;28;19939;-64
2023/07/27 03:21:24;;;;;;;;;;;24.60;93.00;;;;;;5112802;28;19908;-64
2023/07/27 03:23:51;;;;;;;;;;;24.00;92.70;;;;;;5113102;28;19958;-64
2023/07/27 03:26:18;;;;;;;;;;;23.60;93.20;;;;;;5112929;28;20407;-64
2023/07/27 03:28:44;;;;;;;;;;;23.40;93.80;;;;;;5112970;28;20284;-64
2023/07/27 03:31:17;;;;;;;;;;;23.70;93.70;;;;;;5112756;28;19915;-65
2023/07/27 03:33:44;;;;;;;;;;;24.20;91.90;;;;;;5116845;28;20328;-65
2023/07/27 03:36:11;;;;;;;;;;;24.60;91.20;;;;;;5116827;28;20033;-64
2023/07/27 03:38:37;;;;;;;;;;;24.90;91.10;;;;;;5117163;28;20052;-66
2023/07/27 03:41:04;;;;;;;;;;;25.20;90.40;;;;;;5117452;28;20395;-64
2023/07/27 03:43:30;;;;;;;;;;;25.50;90.00;;;;;;5116574;28;20295;-65
2023/07/27 03:45:57;;;;;;;;;;;26.30;88.50;;;;;;5116727;28;19915;-65
2023/07/27 03:48:25;;;;;;;;;;;27.70;85.70;;;;;;5116749;28;19908;-65
2023/07/27 03:50:52;;;;;;;;;;;28.90;81.80;;;;;;5116610;28;19955;-65
2023/07/27 03:53:19;;;;;;;;;;;30.50;78.70;;;;;;5116505;28;20003;-66
2023/07/27 03:55:47;;;;;;;;;;;31.50;76.00;;;;;;5116377;28;19916;-64
2023/07/27 03:58:13;;;;;;;;;;;32.60;71.80;;;;;;5116443;28;20352;-65
2023/07/27 04:00:40;;;;;;;;;;;32.70;69.20;;;;;;5116452;28;19931;-65
2023/07/27 04:03:06;;;;;;;;;;;32.90;68.20;;;;;;5116527;28;19908;-64
2023/07/27 04:05:33;;;;;;;;;;;33.50;67.30;;;;;;5116188;28;19908;-66
2023/07/27 04:08:00;;;;;;;;;;;33.90;66.50;;;;;;5116384;28;20304;-66
2023/07/27 04:10:29;;;;;;;;;;;34.30;64.50;;;;;;5116777;28;19915;-67
2023/07/27 04:12:56;;;;;;;;;;;34.50;63.30;;;;;;5117221;28;19915;-66
2023/07/27 04:15:22;;;;;;;;;;;34.50;63.20;;;;;;5116302;28;19911;-64
2023/07/27 04:17:49;;;;;;;;;;;34.40;63.20;;;;;;5116217;28;19919;-65
2023/07/27 04:20:15;;;;;;;;;;;34.50;63.50;;;;;;5116046;28;20261;-66
2023/07/27 04:22:42;;;;;;;;;;;33.90;64.60;;;;;;5116350;28;20272;-64
2023/07/27 04:25:09;;;;;;;;;;;33.00;65.50;;;;;;5116047;28;19915;-65
2023/07/27 04:27:35;;;;;;;;;;;32.20;65.60;;;;;;5116183;28;19912;-64
2023/07/27 04:30:02;;;;;;;;;;;30.90;67.40;;;;;;5115790;28;19908;-65
2023/07/27 04:32:29;;;;;;;;;;;29.80;69.00;;;;;;5115958;28;19908;-64
2023/07/27 04:34:55;;;;;;;;;;;28.20;72.30;;;;;;5115784;28;20276;-65
2023/07/27 04:37:22;;;;;;;;;;;26.70;76.00;;;;;;5115899;28;19923;-66
2023/07/27 04:39:49;;;;;;;;;;;25.70;79.50;;;;;;5115680;28;20364;-65
2023/07/27 04:42:15;;;;;;;;;;;25.10;81.10;;;;;;5115406;28;19931;-65
2023/07/27 04:44:42;;;;;;;;;;;24.70;82.90;;;;;;5114217;28;19919;-65
2023/07/27 04:47:09;;;;;;;;;;;23.90;85.40;;;;;;5115713;28;19908;-64
2023/07/27 04:49:35;;;;;;;;;;;23.30;87.60;;;;;;5115814;28;20276;-64
2023/07/27 04:52:02;;;;;;;;;;;22.80;89.80;;;;;;5115679;28;19908;-64
2023/07/27 04:54:29;;;;;;;;;;;22.30;90.90;;;;;;5115486;28;19914;-65
2023/07/27 04:56:55;;;;;;;;;;;22.10;91.00;;;;;;5115517;28;19916;-64
2023/07/27 04:59:22;;;;;;;;;;;21.90;91.50;;;;;;5115408;28;19915;-65
2023/07/27 05:01:48;;;;;;;;;;;21.70;92.20;;;;;;5115341;28;19907;-64
2023/07/27 05:04:15;;;;;;;;;;;21.40;92.90;;;;;;5098612;28;19919;-63
2023/07/27 05:06:42;;;;;;;;;;;21.20;93.60;;;;;;5094690;28;20030;-64
2023/07/27 05:09:09;;;;;;;;;;;21.00;94.40;;;;;;5111527;28;20043;-64
2023/07/27 05:11:36;;;;;;;;;;;21.00;94.90;;;;;;5114771;28;19922;-64
2023/07/27 05:14:03;;;;;;;;;;;21.10;95.30;;;;;;5100142;28;19920;-65
2023/07/27 05:16:30;;;;;;;;;;;21.20;95.70;;;;;;5101197;28;19928;-63
2023/07/27 05:18:57;;;;;;;;;;;21.20;95.60;;;;;;5112432;28;19908;-64
2023/07/27 05:21:24;;;;;;;;;;;21.20;96.20;;;;;;5111412;28;19912;-66
2023/07/27 05:23:51;;;;;;;;;;;21.20;96.70;;;;;;5102384;28;19915;-65
2023/07/27 05:26:17;;;;;;;;;;;21.20;96.90;;;;;;5101103;28;19912;-63
2023/07/27 05:28:45;;;;;;;;;;;21.20;97.10;;;;;;5101855;28;19990;-65
2023/07/27 05:31:11;;;;;;;;;;;21.20;97.50;;;;;;5113797;28;19907;-66
2023/07/27 05:33:38;;;;;;;;;;;21.10;97.80;;;;;;5113241;28;19907;-66
2023/07/27 05:36:05;;;;;;;;;;;21.10;97.90;;;;;;5113394;28;19923;-65
2023/07/27 05:38:31;;;;;;;;;;;21.20;98.10;;;;;;5095364;28;19912;-64
2023/07/27 05:41:02;;;;;;;;;;;21.40;97.90;;;;;;5112512;28;19908;-66
2023/07/27 05:43:28;;;;;;;;;;;21.60;97.70;;;;;;5109472;28;19920;-66
2023/07/27 05:45:55;;;;;;;;;;;21.70;97.60;;;;;;5106105;28;19919;-65
2023/07/27 05:48:22;;;;;;;;;;;21.70;97.40;;;;;;5100673;28;20339;-65
2023/07/27 05:50:51;;;;;;;;;;;21.70;97.50;;;;;;5093218;28;20348;-63
2023/07/27 05:53:18;;;;;;;;;;;21.80;97.70;;;;;;5095784;28;19904;-65
2023/07/27 05:55:44;;;;;;;;;;;21.80;97.80;;;;;;5112434;28;20022;-65
2023/07/27 05:58:11;;;;;;;;;;;21.50;98.50;;;;;;5113870;28;19952;-65
2023/07/27 06:00:37;;;;;;;;;;;21.50;98.60;;;;;;5113178;28;20006;-65
2023/07/27 06:03:04;;;;;;;;;;;21.60;98.60;;;;;;5106064;28;20367;-64
2023/07/27 06:05:31;;;;;;;;;;;21.80;98.40;;;;;;5095028;28;20108;-66
2023/07/27 06:07:57;;;;;;;;;;;22.20;98.10;;;;;;5113640;28;20369;-66
2023/07/27 06:10:24;;;;;;;;;;;22.70;96.80;;;;;;5113132;28;19922;-64
2023/07/27 06:12:50;;;;;;;;;;;22.90;96.70;;;;;;5106017;28;19931;-67
2023/07/27 06:15:17;;;;;;;;;;;23.00;96.30;;;;;;5092935;28;19912;-64
2023/07/27 06:17:44;;;;;;;;;;;23.00;96.50;;;;;;5093038;28;19912;-64
2023/07/27 06:20:10;;;;;;;;;;;23.60;95.90;;;;;;5111046;28;19923;-64
2023/07/27 06:22:37;;;;;;;;;;;24.20;95.20;;;;;;5111982;28;20272;-66
2023/07/27 06:25:04;;;;;;;;;;;24.90;94.10;;;;;;5112561;28;19961;-65
2023/07/27 06:27:30;;;;;;;;;;;25.20;92.90;;;;;;5113122;28;19922;-65
2023/07/27 06:29:57;;;;;;;;;;;25.00;92.60;;;;;;5112345;28;19953;-65
2023/07/27 06:32:24;;;;;;;;;;;24.60;93.10;;;;;;5098130;28;20324;-66
2023/07/27 06:34:50;;;;;;;;;;;23.90;93.50;;;;;;5102839;28;20589;-64
2023/07/27 06:37:18;;;;;;;;;;;22.80;94.60;;;;;;5105252;28;19959;-65
2023/07/27 06:39:45;;;;;;;;;;;22.00;96.00;;;;;;5111357;28;19915;-64
2023/07/27 06:42:12;;;;;;;;;;;21.30;97.20;;;;;;5112165;28;20007;-67
2023/07/27 06:44:38;;;;;;;;;;;20.60;98.30;;;;;;5094698;28;19916;-66
2023/07/27 06:47:05;;;;;;;;;;;20.00;99.50;;;;;;5111711;28;19912;-67
2023/07/27 06:49:31;;;;;;;;;;;19.60;99.90;;;;;;5112133;28;19995;-66
2023/07/27 06:51:58;;;;;;;;;;;19.10;99.90;;;;;;5110873;28;20006;-67
2023/07/27 06:54:25;;;;;;;;;;;18.90;99.90;;;;;;5096843;28;19920;-67
2023/07/27 06:56:51;;;;;;;;;;;18.60;99.90;;;;;;5099665;28;19919;-66
2023/07/27 06:59:19;;;;;;;;;;;18.30;99.90;;;;;;5098178;28;19919;-64
2023/07/27 07:01:45;;;;;;;;;;;18.20;99.90;;;;;;5093995;28;19915;-67
2023/07/27 07:04:12;;;;;;;;;;;18.10;99.90;;;;;;5103223;28;19908;-66
2023/07/27 07:06:40;;;;;;;;;;;18.00;99.90;;;;;;5105830;28;19962;-66
2023/07/27 07:09:06;;;;;;;;;;;17.90;99.90;;;;;;5101117;28;20365;-66
2023/07/27 07:11:34;;;;;;;;;;;17.70;99.90;;;;;;5110717;28;19961;-66
2023/07/27 07:14:01;;;;;;;;;;;17.60;99.90;;;;;;5098369;28;19918;-67
2023/07/27 07:16:28;;;;;;;;;;;17.50;99.90;;;;;;5110496;28;19920;-66
2023/07/27 07:18:54;;;;;;;;;;;17.30;99.90;;;;;;5110380;28;19916;-67
2023/07/27 07:21:21;;;;;;;;;;;17.20;99.90;;;;;;5100183;28;20269;-68
2023/07/27 07:23:48;;;;;;;;;;;17.20;99.90;;;;;;5112368;28;20384;-67
2023/07/27 07:26:14;;;;;;;;;;;17.10;99.90;;;;;;5112601;28;19908;-67
2023/07/27 07:28:41;;;;;;;;;;;17.00;99.90;;;;;;5111546;28;19916;-67
2023/07/27 07:31:08;;;;;;;;;;;16.90;99.90;;;;;;5111765;28;19939;-67
2023/07/27 07:33:34;;;;;;;;;;;16.90;99.90;;;;;;5112044;28;19924;-66
2023/07/27 07:36:02;;;;;;;;;;;16.80;99.90;;;;;;5109640;28;20315;-68
2023/07/27 07:38:28;;;;;;;;;;;16.70;99.90;;;;;;5110050;28;19961;-65
2023/07/27 07:40:55;;;;;;;;;;;16.70;99.90;;;;;;5104700;28;20275;-68
2023/07/27 07:43:22;;;;;;;;;;;16.50;99.90;;;;;;5109763;28;19930;-67
2023/07/27 07:45:48;;;;;;;;;;;16.50;99.90;;;;;;5091322;28;19913;-67
2023/07/27 07:48:15;;;;;;;;;;;16.40;99.90;;;;;;5091730;28;19962;-66
2023/07/27 07:50:42;;;;;;;;;;;16.40;99.90;;;;;;5102571;28;19995;-67
2023/07/27 07:53:08;;;;;;;;;;;16.30;99.90;;;;;;5111482;28;19908;-67
2023/07/27 07:55:38;;;;;;;;;;;16.20;99.90;;;;;;5104192;28;19968;-65
2023/07/27 07:58:05;;;;;;;;;;;16.20;99.90;;;;;;5108404;28;20368;-66
2023/07/27 08:00:32;;;;;;;;;;;16.20;99.90;;;;;;5107062;28;20320;-66
2023/07/27 08:02:58;;;;;;;;;;;16.20;99.90;;;;;;5110672;28;19964;-67
2023/07/27 08:05:25;;;;;;;;;;;16.10;99.90;;;;;;5108619;28;19908;-67
2023/07/27 08:07:52;;;;;;;;;;;16.10;99.90;;;;;;5110935;28;20367;-67
2023/07/27 08:10:19;;;;;;;;;;;16.00;99.90;;;;;;5108027;28;19908;-65
2023/07/27 08:12:49;;;;;;;;;;;16.00;99.90;;;;;;5106091;28;19964;-66
2023/07/27 08:15:17;;;;;;;;;;;15.90;99.90;;;;;;5109560;28;20020;-66
2023/07/27 08:17:44;;;;;;;;;;;15.90;99.90;;;;;;5092851;28;19912;-65
2023/07/27 08:20:11;;;;;;;;;;;15.80;99.90;;;;;;5113587;28;19959;-66
2023/07/27 08:22:37;;;;;;;;;;;15.80;99.90;;;;;;5113220;28;20007;-67
2023/07/27 08:25:05;;;;;;;;;;;15.80;99.90;;;;;;5113384;27;19915;-67
2023/07/27 08:27:35;;;;;;;;;;;15.80;99.90;;;;;;5113528;28;19919;-67
2023/07/27 08:30:03;;;;;;;;;;;15.70;99.90;;;;;;5110451;27;19961;-65
2023/07/27 08:32:29;;;;;;;;;;;15.70;99.90;;;;;;5095307;28;19919;-67
2023/07/27 08:34:56;;;;;;;;;;;15.70;99.90;;;;;;5111614;27;19918;-66
2023/07/27 08:37:23;;;;;;;;;;;15.60;99.90;;;;;;5096074;28;20347;-66
2023/07/27 08:39:50;;;;;;;;;;;15.60;99.90;;;;;;5110716;28;19911;-67
2023/07/27 08:42:17;;;;;;;;;;;15.50;99.90;;;;;;5093955;28;20340;-66
2023/07/27 08:44:44;;;;;;;;;;;15.50;99.90;;;;;;5111932;28;19920;-67
2023/07/27 08:47:11;;;;;;;;;;;15.40;99.90;;;;;;5113439;28;19915;-66
2023/07/27 08:49:42;;;;;;;;;;;15.40;99.90;;;;;;5100754;28;19912;-66
2023/07/27 08:52:12;;;;;;;;;;;15.40;99.90;;;;;;5094622;28;20338;-67
2023/07/27 08:54:39;;;;;;;;;;;15.40;99.90;;;;;;5099086;28;19919;-67
2023/07/27 08:57:05;;;;;;;;;;;15.30;99.90;;;;;;5111855;27;19919;-66
2023/07/27 08:59:33;;;;;;;;;;;15.30;99.90;;;;;;5109043;28;19981;-67
2023/07/27 09:02:00;;;;;;;;;;;15.30;99.90;;;;;;5113581;28;19916;-68
2023/07/27 09:04:26;;;;;;;;;;;15.20;99.90;;;;;;5111025;28;20345;-67
2023/07/27 09:06:53;;;;;;;;;;;15.20;99.90;;;;;;5111135;27;19912;-65
2023/07/27 09:09:28;;;;;;;;;;;15.10;99.90;;;;;;5095680;28;19915;-67
2023/07/27 09:11:55;;;;;;;;;;;15.10;99.90;;;;;;5111338;28;19916;-66
2023/07/27 09:14:22;;;;;;;;;;;15.00;99.90;;;;;;5092559;28;19999;-66
2023/07/27 09:16:49;;;;;;;;;;;15.00;99.90;;;;;;5111040;27;19919;-66
2023/07/27 09:19:19;;;;;;;;;;;15.00;99.90;;;;;;5113392;28;19911;-66
2023/07/27 09:21:48;;;;;;;;;;;15.00;99.90;;;;;;5107630;27;20261;-67
2023/07/27 09:24:16;;;;;;;;;;;14.90;99.90;;;;;;5110695;28;20374;-66
2023/07/27 09:26:50;;;;;;;;;;;14.90;99.90;;;;;;5108780;28;19999;-66
2023/07/27 09:29:18;;;;;;;;;;;14.80;99.90;;;;;;5112993;28;20272;-67
2023/07/27 09:31:48;;;;;;;;;;;14.90;99.90;;;;;;5110210;28;19920;-66
2023/07/27 09:34:15;;;;;;;;;;;14.80;99.90;;;;;;5110114;28;19916;-67
2023/07/27 09:36:43;;;;;;;;;;;14.80;99.90;;;;;;5111323;28;20014;-68
2023/07/27 09:39:09;;;;;;;;;;;14.80;99.90;;;;;;5110822;28;19912;-67
2023/07/27 09:41:37;;;;;;;;;;;14.80;99.90;;;;;;5105630;28;19912;-66
2023/07/27 09:44:04;;;;;;;;;;;14.70;99.90;;;;;;5094650;28;19920;-66
2023/07/27 09:46:34;;;;;;;;;;;14.70;99.90;;;;;;5098856;27;19919;-67
2023/07/27 09:49:01;;;;;;;;;;;14.70;99.90;;;;;;5075307;28;19920;-67
2023/07/27 09:51:29;;;;;;;;;;;14.70;99.90;;;;;;5102805;27;20402;-68
2023/07/27 09:53:59;;;;;;;;;;;14.70;99.90;;;;;;5093266;28;19973;-67
2023/07/27 09:56:27;;;;;;;;;;;14.70;99.90;;;;;;5089650;28;19955;-67
2023/07/27 09:58:54;;;;;;;;;;;14.70;99.90;;;;;;5081853;28;19918;-67
2023/07/27 10:01:20;;;;;;;;;;;14.80;99.90;;;;;;5100779;27;19908;-66
2023/07/27 10:03:47;;;;;;;;;;;14.70;99.90;;;;;;5103410;28;20472;-66
2023/07/27 10:06:17;;;;;;;;;;;14.70;99.90;;;;;;5109611;27;19912;-67
2023/07/27 10:08:45;;;;;;;;;;;14.70;99.90;;;;;;5113625;28;19912;-67
2023/07/27 10:11:12;;;;;;;;;;;14.70;99.90;;;;;;5111807;28;19912;-68
2023/07/27 10:13:44;;;;;;;;;;;14.70;99.90;;;;;;5095177;28;19968;-66
2023/07/27 10:16:12;;;;;;;;;;;14.70;99.90;;;;;;5074553;28;19950;-66
2023/07/27 10:18:43;;;;;;;;;;;14.70;99.90;;;;;;5092513;28;19912;-68
2023/07/27 10:21:22;;;;;;;;;;;14.60;99.90;;;;;;5100374;28;19924;-67
2023/07/27 10:23:54;;;;;;;;;;;14.60;99.90;;;;;;5092901;28;19957;-66
2023/07/27 10:26:21;;;;;;;;;;;14.60;99.90;;;;;;5075442;27;19931;-65
2023/07/27 10:28:48;;;;;;;;;;;14.60;99.90;;;;;;5096721;28;19912;-67
2023/07/27 10:31:25;;;;;;;;;;;14.60;99.90;;;;;;5085417;28;19907;-67
2023/07/27 10:33:55;;;;;;;;;;;14.50;99.90;;;;;;5110785;28;19912;-66
2023/07/27 10:36:26;;;;;;;;;;;14.60;99.90;;;;;;5112746;28;19987;-66
2023/07/27 10:38:53;;;;;;;;;;;14.50;99.90;;;;;;5105567;28;19919;-66
2023/07/27 10:41:29;;;;;;;;;;;14.50;99.90;;;;;;5103414;28;19912;-68
2023/07/27 10:44:18;;;;;;;;;;;14.50;99.90;;;;;;5076327;28;19927;-66
2023/07/27 10:46:48;;;;;;;;;;;14.50;99.90;;;;;;5089260;28;20049;-67
2023/07/27 10:49:16;;;;;;;;;;;14.50;99.90;;;;;;5092373;28;20349;-67
2023/07/27 10:51:44;;;;;;;;;;;14.40;99.90;;;;;;5107558;28;20018;-67
2023/07/27 10:54:11;;;;;;;;;;;14.40;99.90;;;;;;5108634;28;19920;-67
2023/07/27 10:56:38;;;;;;;;;;;14.30;99.90;;;;;;5074207;28;19920;-66
2023/07/27 10:59:06;;;;;;;;;;;14.30;99.90;;;;;;5091987;28;20353;-67
2023/07/27 11:01:33;;;;;;;;;;;14.30;99.90;;;;;;5106158;28;19994;-66
2023/07/27 11:04:00;;;;;;;;;;;14.30;99.90;;;;;;5112228;28;20006;-67
2023/07/27 11:06:29;;;;;;;;;;;14.20;99.90;;;;;;5112690;28;20006;-67
2023/07/27 11:08:56;;;;;;;;;;;14.20;99.90;;;;;;5112398;28;19908;-66
2023/07/27 11:11:29;;;;;;;;;;;14.20;99.90;;;;;;5112362;28;19907;-66
2023/07/27 11:14:04;;;;;;;;;;;14.20;99.90;;;;;;5111776;28;19915;-67
2023/07/27 11:16:31;;;;;;;;;;;14.10;99.90;;;;;;5112360;28;19923;-66
2023/07/27 11:19:00;;;;;;;;;;;14.00;99.90;;;;;;5112411;28;20387;-66
2023/07/27 11:21:27;;;;;;;;;;;14.00;99.90;;;;;;5112455;28;19998;-66
2023/07/27 11:23:53;;;;;;;;;;;13.90;99.90;;;;;;5112195;28;19998;-67
2023/07/27 11:26:20;;;;;;;;;;;13.90;99.90;;;;;;5112459;28;19919;-66
2023/07/27 11:28:47;;;;;;;;;;;13.70;99.90;;;;;;5094012;28;19911;-67
2023/07/27 11:31:17;;;;;;;;;;;13.70;99.90;;;;;;5110834;28;20253;-67
2023/07/27 11:33:43;;;;;;;;;;;13.60;99.90;;;;;;5093445;28;19916;-66
2023/07/27 11:36:10;;;;;;;;;;;13.50;99.90;;;;;;5112112;28;20395;-68
2023/07/27 11:38:37;;;;;;;;;;;13.40;99.90;;;;;;5112068;28;20000;-68
2023/07/27 11:41:06;;;;;;;;;;;13.40;99.90;;;;;;5112397;28;19931;-66
2023/07/27 11:43:33;;;;;;;;;;;13.40;99.90;;;;;;5111752;28;19927;-65
2023/07/27 11:46:01;;;;;;;;;;;13.30;99.90;;;;;;5111577;28;19911;-66
2023/07/27 11:48:28;;;;;;;;;;;13.20;99.90;;;;;;5111884;28;19965;-65
2023/07/27 11:50:58;;;;;;;;;;;13.10;99.90;;;;;;5111749;28;19912;-67
2023/07/27 11:53:27;;;;;;;;;;;13.10;99.90;;;;;;5113732;28;19911;-66
2023/07/27 11:55:55;;;;;;;;;;;13.10;99.90;;;;;;5115824;28;19912;-67
2023/07/27 11:58:30;;;;;;;;;;;13.10;99.90;;;;;;5116047;28;20364;-66
2023/07/27 12:00:57;;;;;;;;;;;13.10;99.90;;;;;;5116008;28;19915;-66
2023/07/27 12:03:27;;;;;;;;;;;13.10;99.90;;;;;;5115857;28;19950;-67
2023/07/27 12:05:57;;;;;;;;;;;13.10;99.90;;;;;;5116124;28;19908;-67
2023/07/27 12:08:24;;;;;;;;;;;13.10;99.90;;;;;;5115725;28;19908;-66
2023/07/27 12:10:54;;;;;;;;;;;13.00;99.90;;;;;;5115179;28;19915;-67
2023/07/27 12:13:22;;;;;;;;;;;13.00;99.90;;;;;;5097297;28;19965;-67
2023/07/27 12:15:58;;;;;;;;;;;12.90;99.90;;;;;;5115506;28;19923;-67
2023/07/27 12:18:28;;;;;;;;;;;12.90;99.90;;;;;;5115072;28;20305;-67
2023/07/27 12:20:56;;;;;;;;;;;12.90;99.90;;;;;;5115288;28;20321;-67
2023/07/27 12:23:23;;;;;;;;;;;12.80;99.90;;;;;;5115173;28;19919;-66
2023/07/27 12:25:50;;;;;;;;;;;12.80;99.90;;;;;;5115732;28;20006;-67
2023/07/27 12:28:17;;;;;;;;;;;12.80;99.90;;;;;;5115536;28;19916;-68
2023/07/27 12:30:44;;;;;;;;;;;12.70;99.90;;;;;;5114952;28;19969;-67
2023/07/27 12:33:11;;;;;;;;;;;12.60;99.90;;;;;;5111767;28;19916;-68
2023/07/27 12:35:39;;;;;;;;;;;12.70;99.90;;;;;;5114105;28;19915;-66
2023/07/27 12:38:06;;;;;;;;;;;12.60;99.90;;;;;;5115443;27;19922;-68
2023/07/27 12:40:32;;;;;;;;;;;12.60;99.90;;;;;;5113642;28;19919;-68
2023/07/27 12:42:59;;;;;;;;;;;12.60;99.90;;;;;;5114047;28;20026;-66
2023/07/27 12:45:26;;;;;;;;;;;12.60;99.90;;;;;;5115182;28;20304;-67
2023/07/27 12:47:53;;;;;;;;;;;12.50;99.90;;;;;;5114235;28;19958;-66
2023/07/27 12:50:20;;;;;;;;;;;12.50;99.90;;;;;;5115825;28;19960;-66
2023/07/27 12:52:48;;;;;;;;;;;12.50;99.90;;;;;;5114890;28;19919;-67
2023/07/27 12:55:16;;;;;;;;;;;12.50;99.90;;;;;;5115183;28;19908;-67
2023/07/27 12:57:43;;;;;;;;;;;12.40;99.90;;;;;;5115418;28;20010;-67
2023/07/27 13:00:13;;;;;;;;;;;12.30;99.90;;;;;;5114715;28;19912;-70
2023/07/27 13:02:40;;;;;;;;;;;12.30;99.90;;;;;;5115106;28;19992;-67
2023/07/27 13:05:15;;;;;;;;;;;12.30;99.90;;;;;;5114510;28;19908;-65
2023/07/27 13:07:42;;;;;;;;;;;12.30;99.90;;;;;;5115447;28;19923;-66
2023/07/27 13:10:10;;;;;;;;;;;12.20;99.90;;;;;;5114750;28;20006;-67
2023/07/27 13:12:37;;;;;;;;;;;12.20;99.90;;;;;;5110417;28;19912;-66
2023/07/27 13:15:04;;;;;;;;;;;12.20;99.90;;;;;;5094688;28;19908;-66
2023/07/27 13:17:31;;;;;;;;;;;12.20;99.90;;;;;;5094382;28;20364;-66
2023/07/27 13:19:58;;;;;;;;;;;12.10;99.90;;;;;;5094578;28;19985;-68
2023/07/27 13:22:25;;;;;;;;;;;12.10;99.90;;;;;;5094280;28;19912;-67
2023/07/27 13:24:52;;;;;;;;;;;12.10;99.90;;;;;;5094376;28;19912;-65
2023/07/27 13:27:20;;;;;;;;;;;12.10;99.90;;;;;;5076465;28;19962;-66
2023/07/27 13:29:46;;;;;;;;;;;12.10;99.90;;;;;;5095108;28;19958;-67
2023/07/27 13:32:13;;;;;;;;;;;12.10;99.90;;;;;;5094314;28;19918;-67
2023/07/27 13:34:43;;;;;;;;;;;12.10;99.90;;;;;;5094010;28;20432;-65
2023/07/27 13:37:09;;;;;;;;;;;12.10;99.90;;;;;;5094678;28;19923;-66
2023/07/27 13:39:38;;;;;;;;;;;12.10;99.90;;;;;;5094248;28;20101;-67
2023/07/27 13:42:04;;;;;;;;;;;12.00;99.90;;;;;;5094145;28;20360;-67
2023/07/27 13:44:31;;;;;;;;;;;12.00;99.90;;;;;;5093842;28;19927;-67
2023/07/27 13:46:58;;;;;;;;;;;12.00;99.90;;;;;;5093989;28;19915;-67
2023/07/27 13:49:25;;;;;;;;;;;12.00;99.90;;;;;;5093782;28;19919;-68
2023/07/27 13:51:51;;;;;;;;;;;11.90;99.90;;;;;;5093619;28;19915;-67
2023/07/27 13:54:18;;;;;;;;;;;12.00;99.90;;;;;;5093932;28;20369;-67
2023/07/27 13:56:45;;;;;;;;;;;11.90;99.90;;;;;;5093960;28;19924;-68
2023/07/27 13:59:12;;;;;;;;;;;11.90;99.90;;;;;;5093696;28;20653;-66
2023/07/27 14:01:39;;;;;;;;;;;11.90;99.90;;;;;;5093348;28;19908;-67
2023/07/27 14:04:06;;;;;;;;;;;11.80;99.90;;;;;;5093631;28;19912;-67
2023/07/27 14:06:32;;;;;;;;;;;11.80;99.90;;;;;;5093825;28;20288;-67
2023/07/27 14:08:59;;;;;;;;;;;11.80;99.90;;;;;;5093601;28;19908;-67
2023/07/27 14:11:26;;;;;;;;;;;11.70;99.90;;;;;;5093606;28;20003;-67
2023/07/27 14:13:52;;;;;;;;;;;11.80;99.90;;;;;;5093234;28;19966;-66
2023/07/27 14:16:20;;;;;;;;;;;11.60;99.90;;;;;;5093317;28;20442;-67
2023/07/27 14:18:47;;;;;;;;;;;11.70;99.90;;;;;;5093574;28;20041;-67